Time;durP1;ratioP1;P1;durP2;ratioP2;P2;SDS_P1;SDS_P2;PMS_P1;PMS_P2;Temp;Humidity;BMP_temperature;BMP_pressure;BME280_temperature;BME280_humidity;BME280_pressure;Samples;Min_cycle;Max_cycle;Signal;HPM_P1;HPM_P2
2021/06/30 00:00:25;;;;;;;118.63;45.92;;;;;;;;;;5102032;22;20071;-70
2021/06/30 00:02:52;;;;;;;123.07;47.10;;;;;;;;;;5113117;28;20031;-70
2021/06/30 00:05:19;;;;;;;113.25;47.97;;;;;;;;;;5109447;28;20141;-70
2021/06/30 00:07:46;;;;;;;114.80;47.20;;;;;;;;;;5102474;28;20501;-70
2021/06/30 00:10:13;;;;;;;113.55;46.15;;;;;;;;;;5108665;28;20023;-70
2021/06/30 00:12:41;;;;;;;94.07;43.78;;;;;;;;;;5092195;28;20035;-70
2021/06/30 00:15:10;;;;;;;104.18;42.85;;;;;;;;;;5112107;28;20039;-70
2021/06/30 00:17:37;;;;;;;102.18;44.85;;;;;;;;;;5113659;28;20097;-69
2021/06/30 00:20:06;;;;;;;103.78;43.92;;;;;;;;;;5098527;28;20095;-70
2021/06/30 00:22:33;;;;;;;87.78;41.20;;;;;;;;;;5095604;28;20529;-70
2021/06/30 00:25:00;;;;;;;90.78;40.88;;;;;;;;;;5094148;28;20040;-70
2021/06/30 00:27:28;;;;;;;91.43;43.38;;;;;;;;;;5074905;28;20040;-70
2021/06/30 00:29:55;;;;;;;95.03;44.83;;;;;;;;;;5074630;28;20044;-70
2021/06/30 00:32:22;;;;;;;98.28;42.33;;;;;;;;;;5107094;28;20383;-70
2021/06/30 00:34:49;;;;;;;95.25;44.85;;;;;;;;;;5080618;28;20038;-68
2021/06/30 00:37:16;;;;;;;83.32;42.78;;;;;;;;;;5112873;28;20036;-71
2021/06/30 00:39:43;;;;;;;85.78;41.63;;;;;;;;;;5112445;28;20028;-68
2021/06/30 00:42:10;;;;;;;83.35;43.42;;;;;;;;;;5092229;28;20032;-69
2021/06/30 00:44:41;;;;;;;74.65;39.42;;;;;;;;;;5113350;28;20032;-69
2021/06/30 00:47:08;;;;;;;75.07;39.00;;;;;;;;;;5111990;28;20054;-69
2021/06/30 00:49:35;;;;;;;73.35;36.40;;;;;;;;;;5097430;28;20036;-69
2021/06/30 00:52:03;;;;;;;67.25;35.92;;;;;;;;;;5104866;28;20055;-69
2021/06/30 00:54:30;;;;;;;71.00;38.05;;;;;;;;;;5092346;28;20028;-69
2021/06/30 00:56:58;;;;;;;62.92;35.92;;;;;;;;;;5084958;28;20036;-69
2021/06/30 00:59:25;;;;;;;60.95;35.28;;;;;;;;;;5088994;28;20044;-69
2021/06/30 01:01:52;;;;;;;60.30;32.47;;;;;;;;;;5057116;28;20044;-69
2021/06/30 01:04:19;;;;;;;51.95;32.22;;;;;;;;;;5072188;28;20044;-70
2021/06/30 01:06:46;;;;;;;47.25;28.60;;;;;;;;;;5099224;28;20036;-70
2021/06/30 01:09:13;;;;;;;52.22;29.88;;;;;;;;;;5087021;28;20368;-70
2021/06/30 01:11:42;;;;;;;58.40;32.15;;;;;;;;;;5088569;28;20496;-71
2021/06/30 01:14:09;;;;;;;50.50;28.45;;;;;;;;;;5097839;28;20035;-71
2021/06/30 01:16:36;;;;;;;53.58;30.13;;;;;;;;;;5080129;28;20123;-70
2021/06/30 01:19:03;;;;;;;53.92;30.20;;;;;;;;;;5089418;28;20031;-70
2021/06/30 01:21:31;;;;;;;55.28;30.58;;;;;;;;;;5076758;28;20044;-70
2021/06/30 01:23:58;;;;;;;48.00;29.02;;;;;;;;;;5083692;28;20043;-70
2021/06/30 01:26:25;;;;;;;45.28;28.38;;;;;;;;;;5078886;28;20031;-69
2021/06/30 01:28:52;;;;;;;44.47;27.50;;;;;;;;;;5091812;28;20126;-69
2021/06/30 01:31:19;;;;;;;47.83;28.85;;;;;;;;;;5100829;28;20529;-69
2021/06/30 01:33:46;;;;;;;54.58;31.70;;;;;;;;;;5090632;28;20032;-70
2021/06/30 01:36:13;;;;;;;43.17;29.60;;;;;;;;;;5072496;28;20035;-69
2021/06/30 01:38:40;;;;;;;45.63;28.90;;;;;;;;;;5089841;28;20028;-70
2021/06/30 01:41:08;;;;;;;37.90;25.30;;;;;;;;;;5081959;28;20048;-70
2021/06/30 01:43:35;;;;;;;33.80;22.10;;;;;;;;;;5068272;28;20043;-70
2021/06/30 01:46:02;;;;;;;31.95;19.88;;;;;;;;;;5083729;28;20036;-70
2021/06/30 01:48:29;;;;;;;26.92;18.42;;;;;;;;;;5082933;28;20024;-70
2021/06/30 01:50:56;;;;;;;26.23;17.25;;;;;;;;;;5073527;28;20148;-70
2021/06/30 01:53:23;;;;;;;27.98;17.38;;;;;;;;;;5072127;28;20036;-71
2021/06/30 01:55:51;;;;;;;24.95;17.50;;;;;;;;;;5092995;28;20027;-70
2021/06/30 01:58:19;;;;;;;23.27;15.23;;;;;;;;;;5087697;28;20393;-70
2021/06/30 02:00:49;;;;;;;20.13;13.82;;;;;;;;;;5095277;28;20044;-71
2021/06/30 02:03:17;;;;;;;20.38;13.57;;;;;;;;;;5079190;28;20066;-71
2021/06/30 02:05:44;;;;;;;23.52;14.77;;;;;;;;;;5097763;28;20043;-70
2021/06/30 02:08:11;;;;;;;25.15;13.63;;;;;;;;;;5109579;28;20111;-70
2021/06/30 02:10:39;;;;;;;17.10;11.27;;;;;;;;;;5108284;28;20088;-70
2021/06/30 02:13:07;;;;;;;15.70;10.55;;;;;;;;;;5116458;28;20104;-70
2021/06/30 02:15:38;;;;;;;14.05;9.65;;;;;;;;;;5108491;28;20400;-70
2021/06/30 02:18:06;;;;;;;14.77;7.82;;;;;;;;;;5100571;28;20046;-71
2021/06/30 02:20:34;;;;;;;8.98;6.95;;;;;;;;;;5069231;28;20048;-70
2021/06/30 02:23:01;;;;;;;13.48;6.50;;;;;;;;;;5099783;28;20062;-71
2021/06/30 02:25:29;;;;;;;10.82;6.40;;;;;;;;;;5078092;28;20523;-71
2021/06/30 02:27:57;;;;;;;12.20;7.25;;;;;;;;;;5094597;28;20054;-71
2021/06/30 02:30:29;;;;;;;20.38;13.75;;;;;;;;;;5094811;28;20028;-71
2021/06/30 02:32:57;;;;;;;19.27;12.65;;;;;;;;;;5080423;28;20119;-70
2021/06/30 02:35:25;;;;;;;17.50;11.82;;;;;;;;;;5088921;28;20485;-71
2021/06/30 02:37:55;;;;;;;19.83;13.32;;;;;;;;;;5088926;28;20028;-71
2021/06/30 02:40:22;;;;;;;18.63;11.68;;;;;;;;;;5075249;28;20124;-71
2021/06/30 02:42:50;;;;;;;19.80;11.30;;;;;;;;;;5111624;28;20027;-71
2021/06/30 02:45:18;;;;;;;16.75;10.45;;;;;;;;;;5086875;28;20460;-71
2021/06/30 02:47:46;;;;;;;16.45;8.73;;;;;;;;;;5091127;28;20032;-71
2021/06/30 02:50:16;;;;;;;9.45;3.63;;;;;;;;;;5080939;28;20427;-71
2021/06/30 02:52:44;;;;;;;9.45;3.80;;;;;;;;;;5094345;28;20429;-71
2021/06/30 02:55:12;;;;;;;8.00;2.88;;;;;;;;;;5074067;28;20443;-71
2021/06/30 02:57:40;;;;;;;8.88;2.80;;;;;;;;;;5092636;28;20361;-71
2021/06/30 03:00:08;;;;;;;7.38;3.28;;;;;;;;;;5091805;28;20048;-71
2021/06/30 03:02:35;;;;;;;7.63;2.60;;;;;;;;;;5075481;28;20040;-71
2021/06/30 03:05:02;;;;;;;7.88;2.03;;;;;;;;;;5072381;28;20028;-71
2021/06/30 03:07:30;;;;;;;4.43;1.40;;;;;;;;;;5094348;28;20032;-71
2021/06/30 03:09:57;;;;;;;4.10;1.27;;;;;;;;;;5091821;28;20052;-71
2021/06/30 03:12:24;;;;;;;2.90;1.50;;;;;;;;;;5086589;28;20110;-71
2021/06/30 03:14:51;;;;;;;4.63;1.70;;;;;;;;;;5065248;28;20101;-71
2021/06/30 03:17:18;;;;;;;5.50;1.80;;;;;;;;;;5091891;28;20024;-70
2021/06/30 03:19:46;;;;;;;5.70;1.98;;;;;;;;;;5093286;28;20516;-71
2021/06/30 03:22:13;;;;;;;4.15;1.52;;;;;;;;;;5064616;28;20032;-71
2021/06/30 03:24:40;;;;;;;2.88;1.17;;;;;;;;;;5090747;28;20039;-71
2021/06/30 03:27:07;;;;;;;4.20;1.40;;;;;;;;;;5087171;28;20036;-71
2021/06/30 03:29:34;;;;;;;6.63;1.63;;;;;;;;;;5089274;28;20024;-70
2021/06/30 03:32:02;;;;;;;4.07;1.27;;;;;;;;;;5092072;28;20032;-70
2021/06/30 03:34:29;;;;;;;3.05;1.60;;;;;;;;;;5084511;28;20039;-71
2021/06/30 03:36:56;;;;;;;4.93;1.42;;;;;;;;;;5063437;28;20032;-70
2021/06/30 03:39:23;;;;;;;2.83;1.30;;;;;;;;;;5082334;28;20477;-70
2021/06/30 03:41:50;;;;;;;6.22;1.60;;;;;;;;;;5086229;28;20052;-71
2021/06/30 03:44:17;;;;;;;7.85;2.17;;;;;;;;;;5063234;28;20039;-70
2021/06/30 03:46:49;;;;;;;4.80;2.28;;;;;;;;;;5083564;28;20495;-71
2021/06/30 03:49:17;;;;;;;7.90;5.30;;;;;;;;;;5081294;28;20032;-71
2021/06/30 03:51:44;;;;;;;6.38;2.58;;;;;;;;;;5099096;28;20097;-71
2021/06/30 03:54:11;;;;;;;6.95;3.13;;;;;;;;;;5074199;28;20542;-71
2021/06/30 03:56:38;;;;;;;7.22;4.03;;;;;;;;;;5068956;28;20072;-71
2021/06/30 03:59:06;;;;;;;5.30;3.40;;;;;;;;;;5080557;28;20111;-70
2021/06/30 04:01:33;;;;;;;5.60;2.85;;;;;;;;;;5081104;28;20075;-70
2021/06/30 04:04:01;;;;;;;8.00;3.40;;;;;;;;;;5089193;28;20115;-70
2021/06/30 04:06:29;;;;;;;5.95;3.92;;;;;;;;;;5081229;28;20032;-70
2021/06/30 04:08:56;;;;;;;11.05;4.50;;;;;;;;;;5088191;28;20078;-70
2021/06/30 04:11:23;;;;;;;7.25;4.00;;;;;;;;;;5068509;28;20036;-70
2021/06/30 04:13:50;;;;;;;8.98;3.60;;;;;;;;;;5086808;28;20435;-71
2021/06/30 04:16:17;;;;;;;7.68;3.88;;;;;;;;;;5070650;28;20036;-71
2021/06/30 04:18:44;;;;;;;7.55;3.28;;;;;;;;;;5073718;28;20481;-70
2021/06/30 04:21:11;;;;;;;6.22;3.70;;;;;;;;;;5066406;28;20101;-70
2021/06/30 04:23:39;;;;;;;9.95;4.75;;;;;;;;;;5070185;28;20067;-70
2021/06/30 04:26:06;;;;;;;9.73;5.22;;;;;;;;;;5086407;28;20110;-72
2021/06/30 04:28:33;;;;;;;15.18;6.72;;;;;;;;;;5063457;28;20044;-71
2021/06/30 04:31:00;;;;;;;12.52;6.30;;;;;;;;;;5090195;28;20443;-72
2021/06/30 04:33:30;;;;;;;14.95;6.38;;;;;;;;;;5087751;28;20031;-72
2021/06/30 04:36:05;;;;;;;16.35;5.95;;;;;;;;;;5059725;27;20481;-71
2021/06/30 04:38:32;;;;;;;16.15;6.45;;;;;;;;;;5031483;28;20033;-71
2021/06/30 04:40:59;;;;;;;12.40;5.63;;;;;;;;;;5041890;28;20029;-70
2021/06/30 04:43:27;;;;;;;14.15;5.25;;;;;;;;;;5048628;28;20544;-71
2021/06/30 04:45:54;;;;;;;10.45;5.43;;;;;;;;;;5036052;28;20038;-71
2021/06/30 04:48:21;;;;;;;11.20;5.45;;;;;;;;;;5041899;28;20029;-71
2021/06/30 04:50:48;;;;;;;12.98;5.22;;;;;;;;;;5034442;28;20032;-71
2021/06/30 04:53:16;;;;;;;17.40;5.78;;;;;;;;;;5062360;28;20029;-71
2021/06/30 04:55:43;;;;;;;10.23;5.32;;;;;;;;;;5029732;28;20084;-71
2021/06/30 04:58:10;;;;;;;14.15;5.43;;;;;;;;;;5030074;28;20064;-71
2021/06/30 05:00:37;;;;;;;10.07;4.85;;;;;;;;;;5028624;28;20072;-71
2021/06/30 05:03:04;;;;;;;9.30;5.10;;;;;;;;;;5028942;28;20020;-71
2021/06/30 05:05:31;;;;;;;9.93;5.82;;;;;;;;;;5033805;28;20087;-71
2021/06/30 05:07:59;;;;;;;12.60;5.57;;;;;;;;;;5047214;28;20478;-71
2021/06/30 05:10:26;;;;;;;10.27;5.55;;;;;;;;;;5041359;28;20040;-71
2021/06/30 05:12:53;;;;;;;11.00;4.50;;;;;;;;;;5031766;28;20029;-72
2021/06/30 05:15:22;;;;;;;10.15;5.20;;;;;;;;;;5034854;28;20493;-71
2021/06/30 05:17:50;;;;;;;11.20;4.47;;;;;;;;;;5028336;28;20025;-71
2021/06/30 05:20:18;;;;;;;8.32;3.80;;;;;;;;;;5028976;28;20026;-71
2021/06/30 05:22:45;;;;;;;10.68;4.85;;;;;;;;;;5029707;28;20028;-71
2021/06/30 05:25:12;;;;;;;7.50;3.42;;;;;;;;;;5029321;28;20110;-71
2021/06/30 05:27:39;;;;;;;11.52;4.95;;;;;;;;;;5028576;28;20447;-71
2021/06/30 05:30:07;;;;;;;6.18;3.70;;;;;;;;;;5027835;28;20056;-72
2021/06/30 05:32:34;;;;;;;12.85;4.63;;;;;;;;;;5027542;28;20478;-72
2021/06/30 05:35:01;;;;;;;16.35;5.15;;;;;;;;;;5047502;28;20127;-71
2021/06/30 05:37:28;;;;;;;9.27;5.20;;;;;;;;;;5056210;28;20018;-74
2021/06/30 05:39:56;;;;;;;8.93;4.88;;;;;;;;;;5056812;28;20032;-71
2021/06/30 05:42:23;;;;;;;12.25;6.25;;;;;;;;;;5055704;28;20150;-71
2021/06/30 05:44:50;;;;;;;9.95;5.65;;;;;;;;;;5049598;28;20566;-71
2021/06/30 05:47:17;;;;;;;10.93;5.70;;;;;;;;;;5045404;28;20110;-70
2021/06/30 05:49:44;;;;;;;13.85;7.32;;;;;;;;;;5033456;28;20037;-70
2021/06/30 05:52:11;;;;;;;13.35;7.32;;;;;;;;;;5035731;28;20417;-71
2021/06/30 05:54:38;;;;;;;9.30;7.28;;;;;;;;;;5037111;28;20124;-70
2021/06/30 05:57:06;;;;;;;11.93;7.75;;;;;;;;;;5034022;28;20029;-71
2021/06/30 05:59:33;;;;;;;12.23;7.95;;;;;;;;;;5039515;28;20087;-71
2021/06/30 06:02:00;;;;;;;13.00;8.68;;;;;;;;;;5036180;28;20029;-71
2021/06/30 06:04:27;;;;;;;12.13;7.90;;;;;;;;;;5046051;28;20110;-70
2021/06/30 06:06:54;;;;;;;9.60;5.15;;;;;;;;;;5035501;28;20017;-71
2021/06/30 06:09:21;;;;;;;10.23;4.43;;;;;;;;;;5034748;28;20025;-71
2021/06/30 06:11:49;;;;;;;8.52;4.82;;;;;;;;;;5032591;28;20035;-70
2021/06/30 06:14:16;;;;;;;7.88;4.68;;;;;;;;;;5037383;28;20036;-70
2021/06/30 06:16:43;;;;;;;8.73;5.97;;;;;;;;;;5036248;28;20123;-71
2021/06/30 06:19:10;;;;;;;10.73;6.05;;;;;;;;;;5041797;28;20035;-70
2021/06/30 06:21:37;;;;;;;12.10;6.75;;;;;;;;;;5040460;28;20100;-71
2021/06/30 06:24:04;;;;;;;8.95;5.70;;;;;;;;;;5036034;28;20034;-70
2021/06/30 06:26:31;;;;;;;7.72;3.42;;;;;;;;;;5041621;28;20401;-71
2021/06/30 06:28:59;;;;;;;5.85;2.80;;;;;;;;;;5038578;28;20026;-70
2021/06/30 06:31:28;;;;;;;8.27;3.40;;;;;;;;;;5049745;28;20057;-71
2021/06/30 06:33:55;;;;;;;9.98;3.80;;;;;;;;;;5041112;28;20158;-71
2021/06/30 06:36:24;;;;;;;8.57;2.85;;;;;;;;;;5031841;28;20030;-71
2021/06/30 06:38:51;;;;;;;9.48;3.63;;;;;;;;;;5038301;28;20456;-71
2021/06/30 06:41:19;;;;;;;6.10;2.80;;;;;;;;;;5039732;28;20100;-71
2021/06/30 06:43:46;;;;;;;7.35;3.20;;;;;;;;;;5045171;28;20108;-70
2021/06/30 06:46:13;;;;;;;6.10;3.30;;;;;;;;;;5043104;28;20394;-73
2021/06/30 06:48:42;;;;;;;7.35;3.65;;;;;;;;;;5032578;28;20030;-73
2021/06/30 06:51:09;;;;;;;14.32;4.07;;;;;;;;;;5036741;28;20025;-73
2021/06/30 06:53:36;;;;;;;6.57;3.20;;;;;;;;;;5037970;28;20036;-73
2021/06/30 06:56:08;;;;;;;7.68;3.22;;;;;;;;;;5053057;28;20060;-73
2021/06/30 06:58:35;;;;;;;12.90;3.70;;;;;;;;;;5048402;28;20036;-73
2021/06/30 07:01:02;;;;;;;9.45;3.20;;;;;;;;;;5033710;28;20124;-73
2021/06/30 07:03:29;;;;;;;11.02;3.58;;;;;;;;;;5041485;28;20021;-73
2021/06/30 07:05:57;;;;;;;8.93;3.60;;;;;;;;;;5034721;28;20041;-73
2021/06/30 07:08:24;;;;;;;5.65;3.47;;;;;;;;;;5052498;28;20430;-71
2021/06/30 07:10:51;;;;;;;11.30;3.42;;;;;;;;;;5041796;28;20037;-73
2021/06/30 07:13:18;;;;;;;12.43;3.58;;;;;;;;;;5034938;28;20549;-72
2021/06/30 07:15:45;;;;;;;7.80;2.88;;;;;;;;;;5035757;28;20020;-73
2021/06/30 07:18:15;;;;;;;7.57;2.92;;;;;;;;;;5031015;28;20022;-73
2021/06/30 07:20:45;;;;;;;10.38;3.40;;;;;;;;;;5029997;28;20032;-72
2021/06/30 07:23:13;;;;;;;5.88;3.10;;;;;;;;;;5032278;28;20026;-72
2021/06/30 07:25:40;;;;;;;10.70;3.35;;;;;;;;;;5031197;28;20104;-72
2021/06/30 07:28:08;;;;;;;10.90;2.55;;;;;;;;;;5032168;28;20017;-72
2021/06/30 07:30:35;;;;;;;8.48;2.58;;;;;;;;;;5031519;28;20071;-72
2021/06/30 07:33:02;;;;;;;9.48;3.30;;;;;;;;;;5039147;28;20025;-72
2021/06/30 07:35:30;;;;;;;10.10;3.33;;;;;;;;;;5033587;28;20136;-72
2021/06/30 07:37:57;;;;;;;10.25;4.32;;;;;;;;;;5034012;28;20038;-72
2021/06/30 07:40:24;;;;;;;12.70;3.53;;;;;;;;;;5039371;28;20063;-72
2021/06/30 07:42:51;;;;;;;12.02;4.43;;;;;;;;;;5035110;28;20037;-72
2021/06/30 07:45:18;;;;;;;10.02;4.25;;;;;;;;;;5033507;28;20480;-72
2021/06/30 07:47:46;;;;;;;10.82;4.60;;;;;;;;;;5034065;28;20524;-72
2021/06/30 07:50:13;;;;;;;8.23;4.55;;;;;;;;;;5031897;28;20036;-73
2021/06/30 07:52:40;;;;;;;9.25;3.88;;;;;;;;;;5032467;28;20040;-72
2021/06/30 07:55:07;;;;;;;8.63;3.20;;;;;;;;;;5032802;28;20069;-72
2021/06/30 07:57:34;;;;;;;11.43;4.38;;;;;;;;;;5038291;28;20108;-72
2021/06/30 08:00:02;;;;;;;6.85;3.22;;;;;;;;;;5036017;28;20037;-72
2021/06/30 08:02:29;;;;;;;9.65;3.38;;;;;;;;;;5044318;28;20104;-72
2021/06/30 08:04:56;;;;;;;10.85;4.40;;;;;;;;;;5045778;28;20021;-72
2021/06/30 08:07:23;;;;;;;9.98;3.72;;;;;;;;;;5030082;28;20022;-72
2021/06/30 08:09:50;;;;;;;11.23;5.57;;;;;;;;;;5035307;28;20441;-72
2021/06/30 08:12:17;;;;;;;10.43;5.53;;;;;;;;;;5036435;28;20103;-72
2021/06/30 08:14:45;;;;;;;13.40;5.13;;;;;;;;;;5035608;28;20452;-71
2021/06/30 08:17:12;;;;;;;12.40;5.97;;;;;;;;;;5047125;28;20037;-70
2021/06/30 08:19:39;;;;;;;15.57;5.45;;;;;;;;;;5032682;28;20025;-71
2021/06/30 08:22:12;;;;;;;11.57;5.32;;;;;;;;;;5042747;28;20101;-71
2021/06/30 08:24:39;;;;;;;14.80;5.40;;;;;;;;;;5038944;28;20027;-70
2021/06/30 08:27:08;;;;;;;11.43;6.10;;;;;;;;;;5044014;28;20098;-70
2021/06/30 08:29:36;;;;;;;12.02;7.15;;;;;;;;;;5044156;28;20025;-70
2021/06/30 08:32:03;;;;;;;17.17;9.40;;;;;;;;;;5031006;28;20025;-70
2021/06/30 08:34:30;;;;;;;15.43;9.07;;;;;;;;;;5046642;28;20054;-70
2021/06/30 08:37:05;;;;;;;19.42;7.25;;;;;;;;;;5035030;28;20022;-71
2021/06/30 08:39:31;;;;;;;;;;;;;;;;;;5031131;28;20030;-70
2021/06/30 08:41:59;;;;;;;17.95;7.03;;;;;;;;;;5032958;28;19913;-71
2021/06/30 08:44:26;;;;;;;11.82;5.05;;;;;;;;;;5044316;28;20033;-71
2021/06/30 08:46:56;;;;;;;18.85;5.45;;;;;;;;;;5045379;28;20444;-71
2021/06/30 08:49:25;;;;;;;16.88;6.45;;;;;;;;;;5053523;28;20268;-70
2021/06/30 08:51:54;;;;;;;10.70;5.22;;;;;;;;;;5032590;28;20469;-70
2021/06/30 08:54:22;;;;;;;12.65;6.25;;;;;;;;;;5031922;28;20029;-70
2021/06/30 08:56:49;;;;;;;11.80;5.47;;;;;;;;;;5034079;28;20122;-71
2021/06/30 08:59:17;;;;;;;10.32;5.60;;;;;;;;;;5038281;28;20028;-71
2021/06/30 09:01:45;;;;;;;13.02;4.45;;;;;;;;;;5035251;28;20072;-71
2021/06/30 09:04:13;;;;;;;8.30;4.57;;;;;;;;;;5039122;28;20029;-71
2021/06/30 09:06:40;;;;;;;13.20;5.93;;;;;;;;;;5043226;28;20036;-71
2021/06/30 09:09:10;;;;;;;10.32;5.55;;;;;;;;;;5037547;28;20029;-71
2021/06/30 09:11:37;;;;;;;14.85;5.53;;;;;;;;;;5031065;28;20029;-71
2021/06/30 09:14:12;;;;;;;11.70;5.50;;;;;;;;;;5029976;28;20120;-71
2021/06/30 09:20:12;;;;;;;15.10;6.07;;;;;;;;;;5027836;28;20029;-71
2021/06/30 09:22:45;;;;;;;14.25;6.47;;;;;;;;;;5037328;28;20069;-71
2021/06/30 09:25:33;;;;;;;11.82;6.10;;;;;;;;;;5052186;28;20029;-70
2021/06/30 09:28:00;;;;;;;12.23;4.93;;;;;;;;;;5047254;28;20473;-71
2021/06/30 09:30:27;;;;;;;19.00;7.63;;;;;;;;;;5037506;28;20031;-71
2021/06/30 09:32:58;;;;;;;8.95;5.72;;;;;;;;;;5039197;28;20113;-71
2021/06/30 09:35:27;;;;;;;24.60;8.95;;;;;;;;;;5036704;28;20111;-70
2021/06/30 09:37:55;;;;;;;13.80;8.68;;;;;;;;;;5033624;28;20430;-69
2021/06/30 09:40:22;;;;;;;21.40;9.90;;;;;;;;;;5035240;28;20030;-70
2021/06/30 09:42:49;;;;;;;18.00;8.40;;;;;;;;;;5033574;28;20062;-70
2021/06/30 09:45:20;;;;;;;18.75;9.52;;;;;;;;;;5035073;28;20037;-70
2021/06/30 09:47:57;;;;;;;17.50;9.23;;;;;;;;;;5034399;28;20029;-70
2021/06/30 09:50:40;;;;;;;14.25;8.77;;;;;;;;;;5036211;28;20072;-69
2021/06/30 09:53:07;;;;;;;11.70;6.90;;;;;;;;;;5051086;28;20128;-70
2021/06/30 09:55:37;;;;;;;13.45;7.35;;;;;;;;;;5038432;28;20033;-70
2021/06/30 09:58:04;;;;;;;15.00;7.65;;;;;;;;;;5064066;28;20032;-70
2021/06/30 10:00:32;;;;;;;14.60;7.30;;;;;;;;;;5034851;28;20029;-70
2021/06/30 10:03:00;;;;;;;10.23;6.43;;;;;;;;;;5038048;28;20040;-70
2021/06/30 10:05:35;;;;;;;13.27;7.03;;;;;;;;;;5042287;28;20040;-70
2021/06/30 10:08:09;;;;;;;12.60;6.45;;;;;;;;;;5033909;28;20032;-70
2021/06/30 10:10:36;;;;;;;13.57;6.30;;;;;;;;;;5048874;28;20095;-70
2021/06/30 10:13:03;;;;;;;11.63;6.07;;;;;;;;;;5035475;28;20021;-70
2021/06/30 10:15:31;;;;;;;11.23;5.35;;;;;;;;;;5050881;28;20060;-70
2021/06/30 10:17:59;;;;;;;10.55;6.57;;;;;;;;;;5044715;28;20136;-69
2021/06/30 10:20:26;;;;;;;21.58;9.20;;;;;;;;;;5037253;28;20378;-71
2021/06/30 10:22:54;;;;;;;24.65;10.18;;;;;;;;;;5055923;28;20112;-70
2021/06/30 10:25:21;;;;;;;19.27;10.80;;;;;;;;;;5032539;28;20064;-71
2021/06/30 10:27:48;;;;;;;19.60;8.98;;;;;;;;;;5032722;28;20034;-71
2021/06/30 10:30:16;;;;;;;16.15;9.38;;;;;;;;;;5033861;28;20017;-70
2021/06/30 10:33:02;;;;;;;18.92;10.15;;;;;;;;;;5034354;28;20116;-70
2021/06/30 10:35:32;;;;;;;19.35;9.48;;;;;;;;;;5046442;28;20040;-71
2021/06/30 10:37:59;;;;;;;16.33;8.88;;;;;;;;;;5046166;28;20037;-70
2021/06/30 10:40:26;;;;;;;16.38;8.90;;;;;;;;;;5054075;28;20025;-70
2021/06/30 10:43:08;;;;;;;16.65;8.93;;;;;;;;;;5038712;28;20026;-70
2021/06/30 10:45:35;;;;;;;16.13;9.13;;;;;;;;;;5054574;28;20076;-71
2021/06/30 10:48:05;;;;;;;18.25;8.73;;;;;;;;;;5033899;28;20021;-70
2021/06/30 10:50:44;;;;;;;16.90;7.97;;;;;;;;;;5033307;28;20036;-70
2021/06/30 10:53:12;;;;;;;12.32;7.47;;;;;;;;;;5040878;28;20036;-69
2021/06/30 10:55:47;;;;;;;10.98;7.32;;;;;;;;;;5032901;28;20026;-69
2021/06/30 10:58:15;;;;;;;17.73;7.38;;;;;;;;;;5031969;28;20034;-71
2021/06/30 11:00:48;;;;;;;19.77;8.43;;;;;;;;;;5033327;28;20104;-72
2021/06/30 11:03:34;;;;;;;14.48;7.90;;;;;;;;;;5044406;28;20021;-73
2021/06/30 11:06:10;;;;;;;18.77;9.23;;;;;;;;;;5046389;28;20467;-73
2021/06/30 11:08:38;;;;;;;28.73;9.60;;;;;;;;;;5044569;28;20075;-72
2021/06/30 11:11:05;;;;;;;14.65;8.15;;;;;;;;;;5032274;28;20120;-69
2021/06/30 11:13:50;;;;;;;16.05;9.50;;;;;;;;;;5033458;28;20083;-70
2021/06/30 11:16:41;;;;;;;17.08;8.80;;;;;;;;;;5041976;28;20786;-70
2021/06/30 11:19:09;;;;;;;15.93;7.15;;;;;;;;;;5024583;28;20041;-70
2021/06/30 11:21:46;;;;;;;17.23;7.50;;;;;;;;;;5033807;28;20021;-71
2021/06/30 11:24:31;;;;;;;13.32;6.00;;;;;;;;;;5033687;28;20037;-70
2021/06/30 11:26:58;;;;;;;14.40;5.82;;;;;;;;;;5034662;28;20037;-69
2021/06/30 11:29:43;;;;;;;19.95;9.80;;;;;;;;;;5039815;28;20559;-70
2021/06/30 11:32:29;;;;;;;20.38;11.85;;;;;;;;;;5054377;28;20116;-70
2021/06/30 11:34:56;;;;;;;21.60;14.35;;;;;;;;;;5039686;28;20127;-69
2021/06/30 11:37:23;;;;;;;21.30;13.75;;;;;;;;;;5034592;28;20013;-70
2021/06/30 11:39:57;;;;;;;18.60;13.10;;;;;;;;;;5047994;28;20076;-69
2021/06/30 11:42:31;;;;;;;24.30;11.50;;;;;;;;;;5043160;28;20024;-70
2021/06/30 11:44:58;;;;;;;23.60;13.18;;;;;;;;;;5046417;28;20027;-69
2021/06/30 11:47:25;;;;;;;18.90;11.57;;;;;;;;;;5043568;28;20141;-70
2021/06/30 11:50:02;;;;;;;26.77;13.25;;;;;;;;;;5031574;28;20110;-69
2021/06/30 11:52:30;;;;;;;21.23;12.30;;;;;;;;;;5032189;28;20029;-69
2021/06/30 11:54:57;;;;;;;22.10;12.98;;;;;;;;;;5046671;28;20033;-69
2021/06/30 11:57:25;;;;;;;27.42;13.60;;;;;;;;;;5032838;28;20498;-69
2021/06/30 12:00:02;;;;;;;27.23;13.82;;;;;;;;;;5031118;28;20033;-68
2021/06/30 12:02:44;;;;;;;22.48;14.32;;;;;;;;;;5047374;28;20136;-69
2021/06/30 12:05:15;;;;;;;22.58;14.77;;;;;;;;;;5048017;28;20029;-69
2021/06/30 12:07:46;;;;;;;23.20;15.15;;;;;;;;;;5039278;28;20102;-69
2021/06/30 12:10:13;;;;;;;23.75;15.35;;;;;;;;;;5043758;28;20025;-69
2021/06/30 12:12:40;;;;;;;26.13;17.17;;;;;;;;;;5041904;28;20079;-69
2021/06/30 12:15:08;;;;;;;27.02;16.05;;;;;;;;;;5037942;28;20158;-69
2021/06/30 12:17:36;;;;;;;28.10;16.85;;;;;;;;;;5040655;28;20045;-69
2021/06/30 12:20:05;;;;;;;27.25;15.57;;;;;;;;;;5039493;28;20128;-69
2021/06/30 12:22:33;;;;;;;23.55;16.33;;;;;;;;;;5031224;28;20056;-69
2021/06/30 12:25:06;;;;;;;25.25;17.83;;;;;;;;;;5049114;28;20063;-69
2021/06/30 12:27:35;;;;;;;24.35;15.93;;;;;;;;;;5042768;28;20429;-69
2021/06/30 12:30:05;;;;;;;31.10;18.70;;;;;;;;;;5032471;28;20634;-69
2021/06/30 12:32:32;;;;;;;35.22;19.77;;;;;;;;;;5034100;28;20033;-70
2021/06/30 12:35:01;;;;;;;27.30;18.35;;;;;;;;;;5033490;28;20064;-69
2021/06/30 12:37:28;;;;;;;31.35;19.35;;;;;;;;;;5030127;28;20022;-69
2021/06/30 12:40:00;;;;;;;30.80;19.67;;;;;;;;;;5049889;28;20430;-69
2021/06/30 12:42:42;;;;;;;31.63;19.90;;;;;;;;;;5038918;28;20029;-70
2021/06/30 12:45:11;;;;;;;30.73;19.55;;;;;;;;;;5034971;28;20476;-70
2021/06/30 12:47:50;;;;;;;28.10;18.42;;;;;;;;;;5054082;28;20084;-69
2021/06/30 12:50:17;;;;;;;32.45;18.80;;;;;;;;;;5033878;28;22068;-69
2021/06/30 12:52:44;;;;;;;24.52;17.73;;;;;;;;;;5032491;28;20021;-69
2021/06/30 12:55:13;;;;;;;27.85;17.27;;;;;;;;;;5033352;28;20040;-70
2021/06/30 12:57:58;;;;;;;25.92;17.80;;;;;;;;;;5040920;28;20104;-70
2021/06/30 13:00:25;;;;;;;27.58;17.15;;;;;;;;;;5035072;28;20033;-69
2021/06/30 13:03:09;;;;;;;30.38;18.55;;;;;;;;;;5034256;28;20116;-69
2021/06/30 13:05:36;;;;;;;31.42;18.33;;;;;;;;;;5034883;28;20017;-69
2021/06/30 13:08:03;;;;;;;28.25;18.52;;;;;;;;;;5034607;28;20021;-69
2021/06/30 13:10:31;;;;;;;28.60;18.55;;;;;;;;;;5037369;28;20497;-69
2021/06/30 13:13:08;;;;;;;27.63;19.48;;;;;;;;;;5033985;28;20038;-69
2021/06/30 13:15:35;;;;;;;23.83;17.25;;;;;;;;;;5041365;28;20025;-69
2021/06/30 13:18:16;;;;;;;27.70;18.70;;;;;;;;;;5038588;28;20461;-69
2021/06/30 13:20:43;;;;;;;24.70;18.05;;;;;;;;;;5043279;28;20029;-69
2021/06/30 13:23:10;;;;;;;29.40;19.02;;;;;;;;;;5045233;28;20079;-69
2021/06/30 13:26:02;;;;;;;37.30;20.83;;;;;;;;;;5037953;28;20025;-69
2021/06/30 13:34:19;;;;;;;28.60;18.73;;;;;;;;;;5044033;28;20567;-69
2021/06/30 13:36:46;;;;;;;28.70;19.00;;;;;;;;;;5046189;28;20040;-69
2021/06/30 13:39:13;;;;;;;25.95;18.38;;;;;;;;;;5033156;28;20113;-69
2021/06/30 13:41:41;;;;;;;28.98;17.13;;;;;;;;;;5036046;28;20029;-69
2021/06/30 13:44:08;;;;;;;24.13;18.30;;;;;;;;;;5043438;28;20037;-68
2021/06/30 13:46:35;;;;;;;24.70;17.77;;;;;;;;;;5046045;28;20040;-69
2021/06/30 13:49:02;;;;;;;26.90;18.48;;;;;;;;;;5042788;28;20032;-70
2021/06/30 13:51:29;;;;;;;24.38;19.77;;;;;;;;;;5040931;28;20028;-69
2021/06/30 13:53:56;;;;;;;35.90;21.38;;;;;;;;;;5035528;28;20557;-69
2021/06/30 13:56:24;;;;;;;30.67;18.55;;;;;;;;;;5035450;28;20041;-70
2021/06/30 13:58:54;;;;;;;34.55;19.90;;;;;;;;;;5067563;28;20548;-69
2021/06/30 14:01:21;;;;;;;24.05;17.63;;;;;;;;;;5048553;28;20029;-69
2021/06/30 14:03:49;;;;;;;30.45;17.88;;;;;;;;;;5036065;28;20091;-69
2021/06/30 14:06:16;;;;;;;27.08;18.30;;;;;;;;;;5038794;28;20029;-69
2021/06/30 14:08:43;;;;;;;31.27;19.15;;;;;;;;;;5041547;28;20044;-69
2021/06/30 14:11:10;;;;;;;29.77;19.23;;;;;;;;;;5039834;28;20029;-69
2021/06/30 14:13:39;;;;;;;34.90;19.83;;;;;;;;;;5061010;28;20029;-69
2021/06/30 14:16:07;;;;;;;30.42;21.17;;;;;;;;;;5035376;28;20025;-69
2021/06/30 14:18:34;;;;;;;34.17;22.13;;;;;;;;;;5050090;28;20071;-69
2021/06/30 14:21:02;;;;;;;34.97;22.83;;;;;;;;;;5043794;28;20029;-69
2021/06/30 14:23:29;;;;;;;36.90;24.08;;;;;;;;;;5049607;28;20029;-69
2021/06/30 14:25:59;;;;;;;30.83;22.15;;;;;;;;;;5044538;28;20493;-69
2021/06/30 14:28:27;;;;;;;31.73;22.73;;;;;;;;;;5037873;28;20051;-69
2021/06/30 14:30:54;;;;;;;30.70;22.15;;;;;;;;;;5033831;28;20040;-68
2021/06/30 14:33:22;;;;;;;34.45;23.27;;;;;;;;;;5039593;28;20835;-69
2021/06/30 14:35:51;;;;;;;36.65;25.05;;;;;;;;;;5041568;28;20049;-68
2021/06/30 14:38:18;;;;;;;37.20;22.95;;;;;;;;;;5036459;28;20488;-68
2021/06/30 14:40:45;;;;;;;38.47;25.08;;;;;;;;;;5041435;28;20387;-68
2021/06/30 14:43:13;;;;;;;40.08;24.70;;;;;;;;;;5053112;28;20021;-68
2021/06/30 14:45:40;;;;;;;36.05;22.50;;;;;;;;;;5033757;28;20490;-68